sensor_id;sensor_type;location;lat;lon;timestamp;P1;durP1;ratioP1;P2;durP2;ratioP2
18308;SDS011;9280;50.276;18.650;2022-09-02T00:01:31;9.83;;;5.07;;
18308;SDS011;9280;50.276;18.650;2022-09-02T00:04:19;9.57;;;5.60;;
18308;SDS011;9280;50.276;18.650;2022-09-02T00:07:07;12.27;;;6.00;;
18308;SDS011;9280;50.276;18.650;2022-09-02T00:09:53;15.30;;;6.37;;
18308;SDS011;9280;50.276;18.650;2022-09-02T00:12:39;13.07;;;6.53;;
18308;SDS011;9280;50.276;18.650;2022-09-02T00:15:26;14.07;;;7.40;;
18308;SDS011;9280;50.276;18.650;2022-09-02T00:18:13;12.83;;;5.80;;
18308;SDS011;9280;50.276;18.650;2022-09-02T00:20:59;16.00;;;6.10;;
18308;SDS011;9280;50.276;18.650;2022-09-02T00:23:47;13.97;;;6.73;;
18308;SDS011;9280;50.276;18.650;2022-09-02T00:26:34;17.20;;;7.33;;
18308;SDS011;9280;50.276;18.650;2022-09-02T00:29:21;21.07;;;7.83;;
18308;SDS011;9280;50.276;18.650;2022-09-02T00:32:08;13.13;;;6.83;;
18308;SDS011;9280;50.276;18.650;2022-09-02T00:34:55;20.37;;;6.93;;
18308;SDS011;9280;50.276;18.650;2022-09-02T00:37:42;23.10;;;8.20;;
18308;SDS011;9280;50.276;18.650;2022-09-02T00:40:30;22.60;;;9.17;;
18308;SDS011;9280;50.276;18.650;2022-09-02T00:43:24;19.10;;;8.07;;
18308;SDS011;9280;50.276;18.650;2022-09-02T00:46:11;16.70;;;8.37;;
18308;SDS011;9280;50.276;18.650;2022-09-02T00:48:59;24.97;;;8.63;;
18308;SDS011;9280;50.276;18.650;2022-09-02T00:51:47;19.37;;;8.93;;
18308;SDS011;9280;50.276;18.650;2022-09-02T00:54:34;23.60;;;8.20;;
18308;SDS011;9280;50.276;18.650;2022-09-02T00:57:24;25.37;;;8.77;;
18308;SDS011;9280;50.276;18.650;2022-09-02T01:00:12;25.70;;;8.00;;
18308;SDS011;9280;50.276;18.650;2022-09-02T01:03:02;27.27;;;7.67;;
18308;SDS011;9280;50.276;18.650;2022-09-02T01:05:49;20.87;;;7.73;;
18308;SDS011;9280;50.276;18.650;2022-09-02T01:08:36;21.13;;;7.63;;
18308;SDS011;9280;50.276;18.650;2022-09-02T01:11:22;19.03;;;7.47;;
18308;SDS011;9280;50.276;18.650;2022-09-02T01:14:10;20.67;;;8.40;;
18308;SDS011;9280;50.276;18.650;2022-09-02T01:16:57;21.83;;;8.73;;
18308;SDS011;9280;50.276;18.650;2022-09-02T01:19:44;21.20;;;8.97;;
18308;SDS011;9280;50.276;18.650;2022-09-02T01:22:34;23.70;;;9.30;;
18308;SDS011;9280;50.276;18.650;2022-09-02T01:25:22;21.57;;;8.57;;
18308;SDS011;9280;50.276;18.650;2022-09-02T01:28:11;20.60;;;8.77;;
18308;SDS011;9280;50.276;18.650;2022-09-02T01:30:58;21.53;;;8.40;;
18308;SDS011;9280;50.276;18.650;2022-09-02T01:33:44;16.63;;;7.77;;
18308;SDS011;9280;50.276;18.650;2022-09-02T01:36:31;15.37;;;7.30;;
18308;SDS011;9280;50.276;18.650;2022-09-02T01:39:19;20.57;;;6.77;;
18308;SDS011;9280;50.276;18.650;2022-09-02T01:42:06;15.60;;;6.83;;
18308;SDS011;9280;50.276;18.650;2022-09-02T01:44:54;28.10;;;6.50;;
18308;SDS011;9280;50.276;18.650;2022-09-02T01:47:40;19.23;;;7.13;;
18308;SDS011;9280;50.276;18.650;2022-09-02T01:50:27;23.07;;;7.40;;
18308;SDS011;9280;50.276;18.650;2022-09-02T01:53:15;20.20;;;7.17;;
18308;SDS011;9280;50.276;18.650;2022-09-02T01:56:02;15.10;;;6.23;;
18308;SDS011;9280;50.276;18.650;2022-09-02T01:58:51;16.77;;;8.03;;
18308;SDS011;9280;50.276;18.650;2022-09-02T02:01:37;19.90;;;6.77;;
18308;SDS011;9280;50.276;18.650;2022-09-02T02:04:24;15.63;;;6.43;;
18308;SDS011;9280;50.276;18.650;2022-09-02T02:07:12;15.83;;;6.43;;
18308;SDS011;9280;50.276;18.650;2022-09-02T02:09:59;12.73;;;6.43;;
18308;SDS011;9280;50.276;18.650;2022-09-02T02:12:48;14.13;;;6.93;;
18308;SDS011;9280;50.276;18.650;2022-09-02T02:15:37;18.40;;;6.43;;
18308;SDS011;9280;50.276;18.650;2022-09-02T02:18:24;11.70;;;6.40;;
18308;SDS011;9280;50.276;18.650;2022-09-02T02:21:11;13.47;;;6.80;;
18308;SDS011;9280;50.276;18.650;2022-09-02T02:23:57;15.60;;;7.07;;
18308;SDS011;9280;50.276;18.650;2022-09-02T02:26:44;16.03;;;6.17;;
18308;SDS011;9280;50.276;18.650;2022-09-02T02:29:34;12.80;;;6.17;;
18308;SDS011;9280;50.276;18.650;2022-09-02T02:32:21;14.80;;;6.40;;
18308;SDS011;9280;50.276;18.650;2022-09-02T02:35:10;10.90;;;5.50;;
18308;SDS011;9280;50.276;18.650;2022-09-02T02:37:57;11.27;;;5.60;;
18308;SDS011;9280;50.276;18.650;2022-09-02T02:40:43;12.57;;;5.73;;
18308;SDS011;9280;50.276;18.650;2022-09-02T02:43:31;11.77;;;5.23;;
18308;SDS011;9280;50.276;18.650;2022-09-02T02:46:19;11.07;;;5.57;;
18308;SDS011;9280;50.276;18.650;2022-09-02T02:49:06;11.27;;;5.13;;
18308;SDS011;9280;50.276;18.650;2022-09-02T02:51:53;12.67;;;5.33;;
18308;SDS011;9280;50.276;18.650;2022-09-02T02:54:40;8.50;;;5.70;;
18308;SDS011;9280;50.276;18.650;2022-09-02T02:57:27;12.77;;;5.63;;
18308;SDS011;9280;50.276;18.650;2022-09-02T03:00:15;13.63;;;4.70;;
18308;SDS011;9280;50.276;18.650;2022-09-02T03:03:06;9.90;;;5.10;;
18308;SDS011;9280;50.276;18.650;2022-09-02T03:05:55;12.43;;;5.03;;
18308;SDS011;9280;50.276;18.650;2022-09-02T03:08:43;16.47;;;5.43;;
18308;SDS011;9280;50.276;18.650;2022-09-02T03:11:32;14.07;;;5.40;;
18308;SDS011;9280;50.276;18.650;2022-09-02T03:14:19;12.40;;;5.93;;
18308;SDS011;9280;50.276;18.650;2022-09-02T03:17:05;10.73;;;5.77;;
18308;SDS011;9280;50.276;18.650;2022-09-02T03:19:54;11.50;;;5.37;;
18308;SDS011;9280;50.276;18.650;2022-09-02T03:22:44;9.33;;;5.00;;
18308;SDS011;9280;50.276;18.650;2022-09-02T03:25:32;13.57;;;6.57;;
18308;SDS011;9280;50.276;18.650;2022-09-02T03:28:21;10.63;;;5.17;;
18308;SDS011;9280;50.276;18.650;2022-09-02T03:31:12;9.27;;;5.50;;
18308;SDS011;9280;50.276;18.650;2022-09-02T03:34:00;11.13;;;5.80;;
18308;SDS011;9280;50.276;18.650;2022-09-02T03:36:48;13.33;;;5.30;;
18308;SDS011;9280;50.276;18.650;2022-09-02T03:39:35;10.10;;;4.80;;
18308;SDS011;9280;50.276;18.650;2022-09-02T03:42:23;11.57;;;5.40;;
18308;SDS011;9280;50.276;18.650;2022-09-02T03:45:10;12.93;;;6.53;;
18308;SDS011;9280;50.276;18.650;2022-09-02T03:47:58;12.23;;;5.50;;
18308;SDS011;9280;50.276;18.650;2022-09-02T03:50:48;8.77;;;4.90;;
18308;SDS011;9280;50.276;18.650;2022-09-02T03:53:38;16.13;;;5.40;;
18308;SDS011;9280;50.276;18.650;2022-09-02T03:56:26;12.67;;;5.10;;
18308;SDS011;9280;50.276;18.650;2022-09-02T03:59:13;13.70;;;5.20;;
18308;SDS011;9280;50.276;18.650;2022-09-02T04:02:00;9.20;;;5.30;;
18308;SDS011;9280;50.276;18.650;2022-09-02T04:04:47;9.27;;;5.40;;
18308;SDS011;9280;50.276;18.650;2022-09-02T04:07:33;6.07;;;4.63;;
18308;SDS011;9280;50.276;18.650;2022-09-02T04:10:21;15.17;;;5.53;;
18308;SDS011;9280;50.276;18.650;2022-09-02T04:13:10;9.40;;;5.60;;
18308;SDS011;9280;50.276;18.650;2022-09-02T04:15:57;22.93;;;6.07;;
18308;SDS011;9280;50.276;18.650;2022-09-02T04:18:43;12.47;;;4.80;;
18308;SDS011;9280;50.276;18.650;2022-09-02T04:21:31;17.47;;;6.80;;
18308;SDS011;9280;50.276;18.650;2022-09-02T04:24:18;12.27;;;6.10;;
18308;SDS011;9280;50.276;18.650;2022-09-02T04:27:08;18.73;;;6.43;;
18308;SDS011;9280;50.276;18.650;2022-09-02T04:29:55;10.03;;;5.60;;
18308;SDS011;9280;50.276;18.650;2022-09-02T04:32:43;10.80;;;5.30;;
18308;SDS011;9280;50.276;18.650;2022-09-02T04:35:30;16.83;;;5.27;;
18308;SDS011;9280;50.276;18.650;2022-09-02T04:38:18;14.03;;;5.43;;
18308;SDS011;9280;50.276;18.650;2022-09-02T04:41:06;10.57;;;4.90;;
18308;SDS011;9280;50.276;18.650;2022-09-02T04:43:55;9.23;;;4.90;;
18308;SDS011;9280;50.276;18.650;2022-09-02T04:46:45;13.13;;;5.60;;
18308;SDS011;9280;50.276;18.650;2022-09-02T04:49:35;18.17;;;6.00;;
18308;SDS011;9280;50.276;18.650;2022-09-02T04:52:22;9.10;;;5.37;;
18308;SDS011;9280;50.276;18.650;2022-09-02T04:55:08;12.93;;;5.47;;
18308;SDS011;9280;50.276;18.650;2022-09-02T04:57:55;11.67;;;5.60;;
18308;SDS011;9280;50.276;18.650;2022-09-02T05:00:43;10.43;;;5.83;;
18308;SDS011;9280;50.276;18.650;2022-09-02T05:03:32;16.77;;;5.77;;
18308;SDS011;9280;50.276;18.650;2022-09-02T05:06:20;10.10;;;5.47;;
18308;SDS011;9280;50.276;18.650;2022-09-02T05:09:07;10.20;;;5.07;;
18308;SDS011;9280;50.276;18.650;2022-09-02T05:11:55;8.90;;;4.83;;
18308;SDS011;9280;50.276;18.650;2022-09-02T05:14:44;13.60;;;5.97;;
18308;SDS011;9280;50.276;18.650;2022-09-02T05:17:35;9.97;;;5.00;;
18308;SDS011;9280;50.276;18.650;2022-09-02T05:20:23;12.53;;;5.23;;
18308;SDS011;9280;50.276;18.650;2022-09-02T05:23:13;11.83;;;5.43;;
18308;SDS011;9280;50.276;18.650;2022-09-02T05:26:02;12.50;;;6.00;;
18308;SDS011;9280;50.276;18.650;2022-09-02T05:28:49;12.93;;;6.17;;
18308;SDS011;9280;50.276;18.650;2022-09-02T05:31:35;9.80;;;5.40;;
18308;SDS011;9280;50.276;18.650;2022-09-02T05:34:26;13.83;;;5.20;;
18308;SDS011;9280;50.276;18.650;2022-09-02T05:37:16;14.00;;;5.67;;
18308;SDS011;9280;50.276;18.650;2022-09-02T05:40:03;20.17;;;5.23;;
18308;SDS011;9280;50.276;18.650;2022-09-02T05:42:51;10.83;;;5.50;;
18308;SDS011;9280;50.276;18.650;2022-09-02T05:45:38;13.30;;;5.70;;
18308;SDS011;9280;50.276;18.650;2022-09-02T05:48:24;9.40;;;4.83;;
18308;SDS011;9280;50.276;18.650;2022-09-02T05:51:30;16.37;;;5.23;;
18308;SDS011;9280;50.276;18.650;2022-09-02T05:54:19;12.63;;;5.93;;
18308;SDS011;9280;50.276;18.650;2022-09-02T05:57:07;22.07;;;6.40;;
18308;SDS011;9280;50.276;18.650;2022-09-02T05:59:56;12.33;;;4.90;;
18308;SDS011;9280;50.276;18.650;2022-09-02T06:02:57;8.83;;;4.87;;
18308;SDS011;9280;50.276;18.650;2022-09-02T06:05:53;22.90;;;5.37;;
18308;SDS011;9280;50.276;18.650;2022-09-02T06:08:42;11.53;;;4.90;;
18308;SDS011;9280;50.276;18.650;2022-09-02T06:11:28;16.07;;;6.13;;
18308;SDS011;9280;50.276;18.650;2022-09-02T06:14:15;11.40;;;4.70;;
18308;SDS011;9280;50.276;18.650;2022-09-02T06:17:02;12.10;;;5.40;;
18308;SDS011;9280;50.276;18.650;2022-09-02T06:19:56;12.00;;;5.07;;
18308;SDS011;9280;50.276;18.650;2022-09-02T06:22:44;7.97;;;4.47;;
18308;SDS011;9280;50.276;18.650;2022-09-02T06:25:36;9.10;;;4.67;;
18308;SDS011;9280;50.276;18.650;2022-09-02T06:28:25;12.67;;;5.27;;
18308;SDS011;9280;50.276;18.650;2022-09-02T06:31:12;9.57;;;4.23;;
18308;SDS011;9280;50.276;18.650;2022-09-02T06:34:00;12.20;;;3.40;;
18308;SDS011;9280;50.276;18.650;2022-09-02T06:36:48;12.20;;;3.37;;
18308;SDS011;9280;50.276;18.650;2022-09-02T06:39:37;7.20;;;3.60;;
18308;SDS011;9280;50.276;18.650;2022-09-02T06:42:30;16.07;;;3.93;;
18308;SDS011;9280;50.276;18.650;2022-09-02T06:45:24;6.87;;;3.53;;
18308;SDS011;9280;50.276;18.650;2022-09-02T06:48:13;6.07;;;3.60;;
18308;SDS011;9280;50.276;18.650;2022-09-02T06:50:59;11.47;;;4.13;;
18308;SDS011;9280;50.276;18.650;2022-09-02T06:53:45;18.30;;;6.90;;
18308;SDS011;9280;50.276;18.650;2022-09-02T06:56:33;5.17;;;3.77;;
18308;SDS011;9280;50.276;18.650;2022-09-02T06:59:21;5.50;;;3.80;;
18308;SDS011;9280;50.276;18.650;2022-09-02T07:02:11;9.57;;;3.90;;
18308;SDS011;9280;50.276;18.650;2022-09-02T07:04:58;7.70;;;4.13;;
18308;SDS011;9280;50.276;18.650;2022-09-02T07:08:00;13.83;;;4.10;;
18308;SDS011;9280;50.276;18.650;2022-09-02T07:10:47;8.87;;;3.80;;
18308;SDS011;9280;50.276;18.650;2022-09-02T07:13:34;17.50;;;4.23;;
18308;SDS011;9280;50.276;18.650;2022-09-02T07:16:23;10.10;;;4.50;;
18308;SDS011;9280;50.276;18.650;2022-09-02T07:19:09;10.67;;;3.83;;
18308;SDS011;9280;50.276;18.650;2022-09-02T07:21:56;11.47;;;4.53;;
18308;SDS011;9280;50.276;18.650;2022-09-02T07:24:44;11.50;;;4.67;;
18308;SDS011;9280;50.276;18.650;2022-09-02T07:27:30;10.77;;;4.87;;
18308;SDS011;9280;50.276;18.650;2022-09-02T07:30:18;9.87;;;4.50;;
18308;SDS011;9280;50.276;18.650;2022-09-02T07:33:08;14.07;;;4.23;;
18308;SDS011;9280;50.276;18.650;2022-09-02T07:35:57;6.90;;;4.00;;
18308;SDS011;9280;50.276;18.650;2022-09-02T07:38:43;10.60;;;4.97;;
18308;SDS011;9280;50.276;18.650;2022-09-02T07:41:30;12.27;;;3.93;;
18308;SDS011;9280;50.276;18.650;2022-09-02T07:44:17;5.60;;;2.93;;
18308;SDS011;9280;50.276;18.650;2022-09-02T07:47:06;5.60;;;3.20;;
18308;SDS011;9280;50.276;18.650;2022-09-02T07:49:56;13.63;;;3.33;;
18308;SDS011;9280;50.276;18.650;2022-09-02T07:52:44;7.17;;;3.00;;
18308;SDS011;9280;50.276;18.650;2022-09-02T07:55:33;10.73;;;3.40;;
18308;SDS011;9280;50.276;18.650;2022-09-02T07:58:22;10.73;;;3.10;;
18308;SDS011;9280;50.276;18.650;2022-09-02T08:01:09;8.23;;;3.40;;
18308;SDS011;9280;50.276;18.650;2022-09-02T08:03:59;6.37;;;2.10;;
18308;SDS011;9280;50.276;18.650;2022-09-02T08:06:51;9.53;;;2.50;;
18308;SDS011;9280;50.276;18.650;2022-09-02T08:09:37;9.70;;;2.93;;
18308;SDS011;9280;50.276;18.650;2022-09-02T08:12:24;7.80;;;2.63;;
18308;SDS011;9280;50.276;18.650;2022-09-02T08:15:11;6.37;;;2.70;;
18308;SDS011;9280;50.276;18.650;2022-09-02T08:17:58;6.47;;;3.13;;
18308;SDS011;9280;50.276;18.650;2022-09-02T08:20:45;6.50;;;2.73;;
18308;SDS011;9280;50.276;18.650;2022-09-02T08:23:33;6.73;;;1.80;;
18308;SDS011;9280;50.276;18.650;2022-09-02T08:26:19;2.87;;;2.30;;
18308;SDS011;9280;50.276;18.650;2022-09-02T08:29:07;8.10;;;2.07;;
18308;SDS011;9280;50.276;18.650;2022-09-02T08:31:53;8.33;;;2.50;;
18308;SDS011;9280;50.276;18.650;2022-09-02T08:34:40;4.03;;;2.47;;
18308;SDS011;9280;50.276;18.650;2022-09-02T08:37:27;7.67;;;2.23;;
18308;SDS011;9280;50.276;18.650;2022-09-02T08:40:16;4.20;;;2.10;;
18308;SDS011;9280;50.276;18.650;2022-09-02T08:43:04;4.00;;;1.90;;
18308;SDS011;9280;50.276;18.650;2022-09-02T08:45:53;2.97;;;1.60;;
18308;SDS011;9280;50.276;18.650;2022-09-02T08:48:41;8.83;;;1.90;;
18308;SDS011;9280;50.276;18.650;2022-09-02T08:51:29;9.83;;;1.80;;
18308;SDS011;9280;50.276;18.650;2022-09-02T08:54:18;1.60;;;1.47;;
18308;SDS011;9280;50.276;18.650;2022-09-02T08:57:07;2.30;;;1.57;;
18308;SDS011;9280;50.276;18.650;2022-09-02T08:59:55;7.60;;;1.33;;
18308;SDS011;9280;50.276;18.650;2022-09-02T09:02:47;11.80;;;1.97;;
18308;SDS011;9280;50.276;18.650;2022-09-02T09:05:40;5.00;;;2.50;;
18308;SDS011;9280;50.276;18.650;2022-09-02T09:08:32;8.63;;;2.23;;
18308;SDS011;9280;50.276;18.650;2022-09-02T09:11:22;1.53;;;1.40;;
18308;SDS011;9280;50.276;18.650;2022-09-02T09:14:15;2.33;;;1.50;;
18308;SDS011;9280;50.276;18.650;2022-09-02T09:17:05;5.30;;;1.73;;
18308;SDS011;9280;50.276;18.650;2022-09-02T09:19:55;12.43;;;2.40;;
18308;SDS011;9280;50.276;18.650;2022-09-02T09:22:44;5.27;;;3.33;;
18308;SDS011;9280;50.276;18.650;2022-09-02T09:25:31;2.97;;;2.17;;
18308;SDS011;9280;50.276;18.650;2022-09-02T09:28:17;1.70;;;1.60;;
18308;SDS011;9280;50.276;18.650;2022-09-02T09:31:05;6.77;;;2.00;;
18308;SDS011;9280;50.276;18.650;2022-09-02T09:33:55;6.23;;;2.17;;
18308;SDS011;9280;50.276;18.650;2022-09-02T09:36:42;11.23;;;1.57;;
18308;SDS011;9280;50.276;18.650;2022-09-02T09:39:29;1.63;;;1.40;;
18308;SDS011;9280;50.276;18.650;2022-09-02T09:42:27;3.47;;;1.43;;
18308;SDS011;9280;50.276;18.650;2022-09-02T09:45:16;4.33;;;1.40;;
18308;SDS011;9280;50.276;18.650;2022-09-02T09:48:09;5.73;;;2.03;;
18308;SDS011;9280;50.276;18.650;2022-09-02T09:51:11;4.77;;;1.63;;
18308;SDS011;9280;50.276;18.650;2022-09-02T09:54:12;3.97;;;1.40;;
18308;SDS011;9280;50.276;18.650;2022-09-02T09:57:12;3.43;;;1.20;;
18308;SDS011;9280;50.276;18.650;2022-09-02T09:59:59;1.37;;;1.17;;
18308;SDS011;9280;50.276;18.650;2022-09-02T10:02:57;2.80;;;1.40;;
18308;SDS011;9280;50.276;18.650;2022-09-02T10:05:45;1.97;;;1.03;;
18308;SDS011;9280;50.276;18.650;2022-09-02T10:08:33;2.90;;;1.20;;
18308;SDS011;9280;50.276;18.650;2022-09-02T10:11:20;1.67;;;1.13;;
18308;SDS011;9280;50.276;18.650;2022-09-02T10:14:08;4.30;;;1.00;;
18308;SDS011;9280;50.276;18.650;2022-09-02T10:16:56;2.37;;;1.20;;
18308;SDS011;9280;50.276;18.650;2022-09-02T10:19:49;2.47;;;1.20;;
18308;SDS011;9280;50.276;18.650;2022-09-02T10:22:48;4.00;;;1.00;;
18308;SDS011;9280;50.276;18.650;2022-09-02T10:25:40;5.20;;;1.43;;
18308;SDS011;9280;50.276;18.650;2022-09-02T10:31:33;2.60;;;1.00;;
18308;SDS011;9280;50.276;18.650;2022-09-02T10:34:23;1.80;;;1.23;;
18308;SDS011;9280;50.276;18.650;2022-09-02T10:37:14;2.90;;;1.10;;
18308;SDS011;9280;50.276;18.650;2022-09-02T10:40:08;4.50;;;1.30;;
18308;SDS011;9280;50.276;18.650;2022-09-02T10:42:59;6.47;;;1.17;;
18308;SDS011;9280;50.276;18.650;2022-09-02T10:45:47;3.70;;;1.10;;
18308;SDS011;9280;50.276;18.650;2022-09-02T10:48:38;4.10;;;1.33;;
18308;SDS011;9280;50.276;18.650;2022-09-02T10:51:28;5.00;;;1.40;;
18308;SDS011;9280;50.276;18.650;2022-09-02T10:54:23;3.60;;;1.50;;
18308;SDS011;9280;50.276;18.650;2022-09-02T10:57:14;2.77;;;1.37;;
18308;SDS011;9280;50.276;18.650;2022-09-02T11:00:04;5.33;;;1.67;;
18308;SDS011;9280;50.276;18.650;2022-09-02T11:02:54;5.53;;;1.73;;
18308;SDS011;9280;50.276;18.650;2022-09-02T11:05:42;3.90;;;1.50;;
18308;SDS011;9280;50.276;18.650;2022-09-02T11:08:33;6.17;;;1.70;;
18308;SDS011;9280;50.276;18.650;2022-09-02T11:11:23;11.07;;;1.70;;
18308;SDS011;9280;50.276;18.650;2022-09-02T11:14:16;5.90;;;1.30;;
18308;SDS011;9280;50.276;18.650;2022-09-02T11:17:06;2.83;;;1.40;;
18308;SDS011;9280;50.276;18.650;2022-09-02T11:19:54;3.43;;;1.60;;
18308;SDS011;9280;50.276;18.650;2022-09-02T11:22:44;4.00;;;1.30;;
18308;SDS011;9280;50.276;18.650;2022-09-02T11:25:37;3.13;;;2.20;;
18308;SDS011;9280;50.276;18.650;2022-09-02T11:28:29;7.13;;;1.20;;
18308;SDS011;9280;50.276;18.650;2022-09-02T11:31:20;4.40;;;1.63;;
18308;SDS011;9280;50.276;18.650;2022-09-02T11:34:16;4.27;;;1.50;;
18308;SDS011;9280;50.276;18.650;2022-09-02T11:37:06;3.40;;;1.77;;
18308;SDS011;9280;50.276;18.650;2022-09-02T11:39:54;3.17;;;1.73;;
18308;SDS011;9280;50.276;18.650;2022-09-02T11:42:45;2.07;;;1.47;;
18308;SDS011;9280;50.276;18.650;2022-09-02T11:45:46;3.13;;;1.50;;
18308;SDS011;9280;50.276;18.650;2022-09-02T11:49:03;8.87;;;1.67;;
18308;SDS011;9280;50.276;18.650;2022-09-02T11:51:56;4.20;;;1.60;;
18308;SDS011;9280;50.276;18.650;2022-09-02T11:54:44;6.43;;;1.40;;
18308;SDS011;9280;50.276;18.650;2022-09-02T11:57:32;2.47;;;1.50;;
18308;SDS011;9280;50.276;18.650;2022-09-02T12:00:26;8.47;;;1.20;;
18308;SDS011;9280;50.276;18.650;2022-09-02T12:03:15;1.83;;;1.10;;
18308;SDS011;9280;50.276;18.650;2022-09-02T12:06:05;1.20;;;1.10;;
18308;SDS011;9280;50.276;18.650;2022-09-02T12:08:57;1.07;;;0.90;;
18308;SDS011;9280;50.276;18.650;2022-09-02T12:11:50;3.57;;;1.40;;
18308;SDS011;9280;50.276;18.650;2022-09-02T12:21:05;6.63;;;1.23;;
18308;SDS011;9280;50.276;18.650;2022-09-02T12:24:06;1.20;;;1.10;;
18308;SDS011;9280;50.276;18.650;2022-09-02T12:27:06;1.47;;;1.23;;
18308;SDS011;9280;50.276;18.650;2022-09-02T12:29:53;2.27;;;1.20;;
18308;SDS011;9280;50.276;18.650;2022-09-02T12:35:51;3.43;;;1.50;;
18308;SDS011;9280;50.276;18.650;2022-09-02T12:38:40;4.97;;;1.40;;
18308;SDS011;9280;50.276;18.650;2022-09-02T12:41:27;3.83;;;1.10;;
18308;SDS011;9280;50.276;18.650;2022-09-02T12:44:18;2.73;;;1.67;;
18308;SDS011;9280;50.276;18.650;2022-09-02T12:47:07;3.57;;;1.40;;
18308;SDS011;9280;50.276;18.650;2022-09-02T12:49:59;1.40;;;1.20;;
18308;SDS011;9280;50.276;18.650;2022-09-02T12:52:48;3.00;;;1.40;;
18308;SDS011;9280;50.276;18.650;2022-09-02T12:55:36;7.03;;;1.53;;
18308;SDS011;9280;50.276;18.650;2022-09-02T12:58:23;3.83;;;1.40;;
18308;SDS011;9280;50.276;18.650;2022-09-02T13:01:15;2.90;;;1.67;;
18308;SDS011;9280;50.276;18.650;2022-09-02T13:04:09;4.07;;;1.50;;
18308;SDS011;9280;50.276;18.650;2022-09-02T13:07:25;6.20;;;1.50;;
18308;SDS011;9280;50.276;18.650;2022-09-02T13:13:29;4.40;;;1.73;;
18308;SDS011;9280;50.276;18.650;2022-09-02T13:16:27;4.30;;;1.50;;
18308;SDS011;9280;50.276;18.650;2022-09-02T13:19:26;4.07;;;1.53;;
18308;SDS011;9280;50.276;18.650;2022-09-02T13:22:28;4.17;;;1.67;;
18308;SDS011;9280;50.276;18.650;2022-09-02T13:25:27;8.03;;;1.60;;
18308;SDS011;9280;50.276;18.650;2022-09-02T13:31:35;1.57;;;1.00;;
18308;SDS011;9280;50.276;18.650;2022-09-02T13:34:21;5.97;;;1.70;;
18308;SDS011;9280;50.276;18.650;2022-09-02T13:40:15;6.63;;;1.20;;
18308;SDS011;9280;50.276;18.650;2022-09-02T13:43:03;5.43;;;1.60;;
18308;SDS011;9280;50.276;18.650;2022-09-02T13:45:50;1.40;;;1.30;;
18308;SDS011;9280;50.276;18.650;2022-09-02T13:48:38;4.00;;;1.77;;
18308;SDS011;9280;50.276;18.650;2022-09-02T13:51:25;1.87;;;1.50;;
18308;SDS011;9280;50.276;18.650;2022-09-02T13:54:11;8.30;;;1.83;;
18308;SDS011;9280;50.276;18.650;2022-09-02T13:56:59;6.83;;;1.83;;
18308;SDS011;9280;50.276;18.650;2022-09-02T13:59:48;8.00;;;1.60;;
18308;SDS011;9280;50.276;18.650;2022-09-02T14:02:35;6.53;;;1.40;;
18308;SDS011;9280;50.276;18.650;2022-09-02T14:05:23;4.47;;;1.67;;
18308;SDS011;9280;50.276;18.650;2022-09-02T14:08:11;4.70;;;1.80;;
18308;SDS011;9280;50.276;18.650;2022-09-02T14:10:58;2.60;;;1.60;;
18308;SDS011;9280;50.276;18.650;2022-09-02T14:13:45;1.30;;;1.17;;
18308;SDS011;9280;50.276;18.650;2022-09-02T14:16:33;4.27;;;1.80;;
18308;SDS011;9280;50.276;18.650;2022-09-02T14:19:23;2.23;;;1.37;;
18308;SDS011;9280;50.276;18.650;2022-09-02T14:22:18;18.43;;;2.40;;
18308;SDS011;9280;50.276;18.650;2022-09-02T14:25:07;4.60;;;1.63;;
18308;SDS011;9280;50.276;18.650;2022-09-02T14:27:54;5.07;;;1.67;;
18308;SDS011;9280;50.276;18.650;2022-09-02T14:30:40;8.20;;;1.33;;
18308;SDS011;9280;50.276;18.650;2022-09-02T14:33:36;6.87;;;1.90;;
18308;SDS011;9280;50.276;18.650;2022-09-02T14:36:30;1.90;;;1.37;;
18308;SDS011;9280;50.276;18.650;2022-09-02T14:39:18;4.37;;;1.50;;
18308;SDS011;9280;50.276;18.650;2022-09-02T14:42:05;5.57;;;1.67;;
18308;SDS011;9280;50.276;18.650;2022-09-02T14:44:51;4.17;;;1.70;;
18308;SDS011;9280;50.276;18.650;2022-09-02T14:47:39;4.00;;;1.50;;
18308;SDS011;9280;50.276;18.650;2022-09-02T14:50:26;4.13;;;1.67;;
18308;SDS011;9280;50.276;18.650;2022-09-02T14:53:18;12.03;;;1.80;;
18308;SDS011;9280;50.276;18.650;2022-09-02T14:56:07;8.27;;;1.77;;
18308;SDS011;9280;50.276;18.650;2022-09-02T14:58:54;4.13;;;1.57;;
18308;SDS011;9280;50.276;18.650;2022-09-02T15:01:40;3.03;;;2.17;;
18308;SDS011;9280;50.276;18.650;2022-09-02T15:04:29;2.10;;;1.70;;
18308;SDS011;9280;50.276;18.650;2022-09-02T15:07:18;6.17;;;1.77;;
18308;SDS011;9280;50.276;18.650;2022-09-02T15:10:05;4.73;;;1.83;;
18308;SDS011;9280;50.276;18.650;2022-09-02T15:12:54;6.77;;;1.80;;
18308;SDS011;9280;50.276;18.650;2022-09-02T15:15:41;4.83;;;2.17;;
18308;SDS011;9280;50.276;18.650;2022-09-02T15:18:28;5.20;;;1.67;;
18308;SDS011;9280;50.276;18.650;2022-09-02T15:21:14;5.97;;;1.90;;
18308;SDS011;9280;50.276;18.650;2022-09-02T15:24:03;7.07;;;2.03;;
18308;SDS011;9280;50.276;18.650;2022-09-02T15:26:50;5.93;;;2.17;;
18308;SDS011;9280;50.276;18.650;2022-09-02T15:29:39;4.07;;;1.53;;
18308;SDS011;9280;50.276;18.650;2022-09-02T15:32:25;8.80;;;1.60;;
18308;SDS011;9280;50.276;18.650;2022-09-02T15:35:11;9.17;;;2.17;;
18308;SDS011;9280;50.276;18.650;2022-09-02T15:37:58;8.60;;;1.70;;
18308;SDS011;9280;50.276;18.650;2022-09-02T15:40:44;5.63;;;2.17;;
18308;SDS011;9280;50.276;18.650;2022-09-02T15:43:31;4.23;;;2.40;;
18308;SDS011;9280;50.276;18.650;2022-09-02T15:46:24;6.20;;;2.70;;
18308;SDS011;9280;50.276;18.650;2022-09-02T15:49:12;8.30;;;2.20;;
18308;SDS011;9280;50.276;18.650;2022-09-02T15:52:00;7.60;;;2.63;;
18308;SDS011;9280;50.276;18.650;2022-09-02T15:54:48;4.87;;;2.40;;
18308;SDS011;9280;50.276;18.650;2022-09-02T15:57:34;7.63;;;2.20;;
18308;SDS011;9280;50.276;18.650;2022-09-02T16:00:21;5.60;;;2.40;;
18308;SDS011;9280;50.276;18.650;2022-09-02T16:03:10;4.47;;;2.37;;
18308;SDS011;9280;50.276;18.650;2022-09-02T16:05:59;5.60;;;2.47;;
18308;SDS011;9280;50.276;18.650;2022-09-02T16:08:46;4.97;;;1.97;;
18308;SDS011;9280;50.276;18.650;2022-09-02T16:11:33;6.97;;;1.80;;
18308;SDS011;9280;50.276;18.650;2022-09-02T16:14:21;3.37;;;2.47;;
18308;SDS011;9280;50.276;18.650;2022-09-02T16:17:08;6.27;;;2.13;;
18308;SDS011;9280;50.276;18.650;2022-09-02T16:19:57;6.87;;;2.50;;
18308;SDS011;9280;50.276;18.650;2022-09-02T16:22:44;7.60;;;2.40;;
18308;SDS011;9280;50.276;18.650;2022-09-02T16:25:31;3.17;;;1.90;;
18308;SDS011;9280;50.276;18.650;2022-09-02T16:28:17;5.50;;;1.73;;
18308;SDS011;9280;50.276;18.650;2022-09-02T16:31:04;3.40;;;2.00;;
18308;SDS011;9280;50.276;18.650;2022-09-02T16:33:51;4.47;;;2.47;;
18308;SDS011;9280;50.276;18.650;2022-09-02T16:36:40;8.83;;;2.17;;
18308;SDS011;9280;50.276;18.650;2022-09-02T16:39:26;4.43;;;2.00;;
18308;SDS011;9280;50.276;18.650;2022-09-02T16:42:12;5.67;;;2.20;;
18308;SDS011;9280;50.276;18.650;2022-09-02T16:44:59;6.07;;;2.20;;
18308;SDS011;9280;50.276;18.650;2022-09-02T16:47:45;5.33;;;2.10;;
18308;SDS011;9280;50.276;18.650;2022-09-02T16:50:31;7.47;;;2.33;;
18308;SDS011;9280;50.276;18.650;2022-09-02T16:53:19;7.10;;;2.77;;
18308;SDS011;9280;50.276;18.650;2022-09-02T16:56:09;3.90;;;2.47;;
18308;SDS011;9280;50.276;18.650;2022-09-02T16:58:58;9.27;;;2.17;;
18308;SDS011;9280;50.276;18.650;2022-09-02T17:01:50;8.37;;;2.97;;
18308;SDS011;9280;50.276;18.650;2022-09-02T17:04:36;8.67;;;3.17;;
18308;SDS011;9280;50.276;18.650;2022-09-02T17:07:23;6.20;;;3.40;;
18308;SDS011;9280;50.276;18.650;2022-09-02T17:10:11;2.83;;;2.00;;
18308;SDS011;9280;50.276;18.650;2022-09-02T17:12:57;5.70;;;2.80;;
18308;SDS011;9280;50.276;18.650;2022-09-02T17:15:44;7.77;;;3.37;;